Time;durP1;ratioP1;P1;durP2;ratioP2;P2;SDS_P1;SDS_P2;PMS_P1;PMS_P2;Temp;Humidity;BMP_temperature;BMP_pressure;BME280_temperature;BME280_humidity;BME280_pressure;Samples;Min_cycle;Max_cycle;Signal;HPM_P1;HPM_P2
2023/09/11 00:01:40;;;;;;;15.27;13.97;;;18.70;99.90;;;;;;5010415;28;20207;-78
2023/09/11 00:04:07;;;;;;;15.70;14.27;;;18.60;99.90;;;;;;5011781;28;20275;-78
2023/09/11 00:06:34;;;;;;;15.07;13.77;;;18.60;99.90;;;;;;5003133;28;20260;-78
2023/09/11 00:09:03;;;;;;;16.13;14.77;;;18.60;99.90;;;;;;4999180;28;20743;-78
2023/09/11 00:11:30;;;;;;;14.50;13.30;;;18.60;99.90;;;;;;5003235;28;20236;-77
2023/09/11 00:13:57;;;;;;;14.97;13.77;;;18.60;99.90;;;;;;4997260;28;20211;-78
2023/09/11 00:16:24;;;;;;;15.10;13.80;;;18.60;99.90;;;;;;5000303;28;20214;-78
2023/09/11 00:18:51;;;;;;;13.83;12.63;;;18.60;99.90;;;;;;5001286;28;20235;-77
2023/09/11 00:21:17;;;;;;;14.73;13.53;;;18.50;99.90;;;;;;5002285;28;20210;-78
2023/09/11 00:23:44;;;;;;;13.67;12.50;;;18.50;99.90;;;;;;4998911;28;20262;-78
2023/09/11 00:26:13;;;;;;;14.33;13.10;;;18.40;99.90;;;;;;5003898;28;20245;-78
2023/09/11 00:28:40;;;;;;;14.93;13.67;;;18.40;99.90;;;;;;5005284;28;20219;-77
2023/09/11 00:31:07;;;;;;;15.30;14.00;;;18.40;99.90;;;;;;4997289;28;20718;-79
2023/09/11 00:33:34;;;;;;;14.77;13.53;;;18.40;99.90;;;;;;5000601;28;20216;-78
2023/09/11 00:36:00;;;;;;;15.13;13.70;;;18.40;99.90;;;;;;5002488;28;20210;-78
2023/09/11 00:38:27;;;;;;;15.60;14.30;;;18.40;99.90;;;;;;5003488;28;20221;-78
2023/09/11 00:40:54;;;;;;;13.63;12.63;;;18.40;99.90;;;;;;5005218;28;20204;-78
2023/09/11 00:43:22;;;;;;;14.30;13.10;;;18.40;99.90;;;;;;5000261;28;20196;-78
2023/09/11 00:45:50;;;;;;;14.47;13.37;;;18.40;99.90;;;;;;4998861;28;20229;-78
2023/09/11 00:48:19;;;;;;;15.43;14.23;;;18.40;99.90;;;;;;5004258;28;20215;-79
2023/09/11 00:50:46;;;;;;;15.33;14.03;;;18.30;99.90;;;;;;5000059;28;20203;-78
2023/09/11 00:53:14;;;;;;;15.30;14.03;;;18.30;99.90;;;;;;5000467;28;20668;-77
2023/09/11 00:55:43;;;;;;;15.07;13.87;;;18.30;99.90;;;;;;5002901;28;20213;-79
2023/09/11 00:58:10;;;;;;;14.97;13.87;;;18.30;99.90;;;;;;5036723;23;20279;-77
2023/09/11 01:00:38;;;;;;;15.80;14.50;;;18.20;99.90;;;;;;5030332;28;20219;-77
2023/09/11 01:03:05;;;;;;;15.57;14.37;;;18.20;99.90;;;;;;5027139;28;20208;-77
2023/09/11 01:05:35;;;;;;;15.43;14.23;;;18.20;99.90;;;;;;5025337;28;20740;-77
2023/09/11 01:08:03;;;;;;;16.73;15.30;;;18.20;99.90;;;;;;5027088;28;20251;-77
2023/09/11 01:10:30;;;;;;;14.67;13.57;;;18.20;99.90;;;;;;5034490;28;20327;-77
2023/09/11 01:12:59;;;;;;;15.63;14.33;;;18.20;99.90;;;;;;5034716;28;20205;-77
2023/09/11 01:15:31;;;;;;;14.87;13.73;;;18.20;99.90;;;;;;5036041;28;20621;-77
2023/09/11 01:18:04;;;;;;;13.90;12.80;;;18.20;99.90;;;;;;5034138;28;20633;-77
2023/09/11 01:20:59;;;;;;;14.20;13.00;;;18.20;99.90;;;;;;5020901;28;20664;-77
2023/09/11 01:23:51;;;;;;;14.80;13.60;;;18.10;99.90;;;;;;5018587;28;20234;-77
2023/09/11 01:26:52;;;;;;;14.70;13.50;;;18.10;99.90;;;;;;5027161;28;20585;-77
2023/09/11 01:29:23;;;;;;;15.57;14.20;;;18.10;99.90;;;;;;5022879;28;20248;-77
2023/09/11 01:31:50;;;;;;;15.23;14.00;;;18.10;99.90;;;;;;5024267;28;20554;-77
2023/09/11 01:34:17;;;;;;;15.97;14.67;;;18.00;99.90;;;;;;5017823;28;20198;-77
2023/09/11 01:36:44;;;;;;;16.07;14.70;;;18.00;99.90;;;;;;5019243;28;20200;-77
2023/09/11 01:39:12;;;;;;;14.53;13.33;;;18.00;99.90;;;;;;5019854;28;20351;-77
2023/09/11 01:41:42;;;;;;;16.10;14.70;;;18.00;99.90;;;;;;5018552;28;20697;-77
2023/09/11 01:44:16;;;;;;;15.63;14.43;;;17.90;99.90;;;;;;5016405;28;20196;-76
2023/09/11 01:46:46;;;;;;;15.90;14.50;;;17.90;99.90;;;;;;5027587;28;20215;-77
2023/09/11 01:49:14;;;;;;;16.50;15.10;;;17.90;99.90;;;;;;5024039;28;20224;-77
2023/09/11 01:51:42;;;;;;;15.40;14.10;;;17.80;99.90;;;;;;5025917;28;20258;-77
2023/09/11 01:54:09;;;;;;;15.83;14.50;;;17.80;99.90;;;;;;5023841;28;20200;-77
2023/09/11 01:56:36;;;;;;;15.10;13.90;;;17.80;99.90;;;;;;5026296;28;20204;-77
2023/09/11 01:59:03;;;;;;;15.97;14.57;;;17.80;99.90;;;;;;5024076;28;20224;-77
2023/09/11 02:01:31;;;;;;;15.17;13.90;;;17.80;99.90;;;;;;5019317;28;20196;-76
2023/09/11 02:03:59;;;;;;;15.97;14.67;;;17.70;99.90;;;;;;5022085;28;20200;-77
2023/09/11 02:06:25;;;;;;;14.47;13.27;;;17.70;99.90;;;;;;5014806;28;20362;-77
2023/09/11 02:08:56;;;;;;;15.30;14.10;;;17.80;99.90;;;;;;5019473;28;20223;-77
2023/09/11 02:11:23;;;;;;;15.53;14.23;;;17.70;99.90;;;;;;5020162;28;20193;-77
2023/09/11 02:13:50;;;;;;;16.27;15.07;;;17.60;99.90;;;;;;5023612;28;20226;-77
2023/09/11 02:16:17;;;;;;;16.13;14.83;;;17.60;99.90;;;;;;5018979;28;20200;-77
2023/09/11 02:18:44;;;;;;;15.43;14.23;;;17.70;99.90;;;;;;5028357;28;20271;-77
2023/09/11 02:21:12;;;;;;;15.20;14.00;;;17.60;99.90;;;;;;5019297;28;20197;-77
2023/09/11 02:23:39;;;;;;;15.97;14.67;;;17.60;99.90;;;;;;5020161;28;20209;-78
2023/09/11 02:26:05;;;;;;;15.70;14.50;;;17.60;99.90;;;;;;5023866;28;20219;-77
2023/09/11 02:28:32;;;;;;;16.10;14.77;;;17.60;99.90;;;;;;5024053;28;20228;-77
2023/09/11 02:30:59;;;;;;;15.23;14.03;;;17.50;99.90;;;;;;5030401;28;20646;-77
2023/09/11 02:33:26;;;;;;;14.70;13.50;;;17.50;99.90;;;;;;5016283;28;20272;-77
2023/09/11 02:35:55;;;;;;;15.03;13.93;;;17.50;99.90;;;;;;5018083;28;20262;-77
2023/09/11 02:38:23;;;;;;;15.63;14.33;;;17.40;99.90;;;;;;5014587;28;20760;-77
2023/09/11 02:40:50;;;;;;;15.23;13.93;;;17.40;99.90;;;;;;5020139;28;20741;-77
2023/09/11 02:43:17;;;;;;;14.83;13.73;;;17.40;99.90;;;;;;5022699;28;21301;-76
2023/09/11 02:45:44;;;;;;;16.47;15.17;;;17.40;99.90;;;;;;5025476;28;20698;-77
2023/09/11 02:48:12;;;;;;;15.20;14.03;;;17.30;99.90;;;;;;5024187;28;20605;-77
2023/09/11 02:50:38;;;;;;;15.67;14.47;;;17.30;99.90;;;;;;5019923;28;20254;-77
2023/09/11 02:53:07;;;;;;;15.47;14.27;;;17.30;99.90;;;;;;5021159;28;20200;-76
2023/09/11 02:55:37;;;;;;;15.27;14.07;;;17.30;99.90;;;;;;5020656;28;20191;-79
2023/09/11 02:58:04;;;;;;;14.27;13.17;;;17.20;99.90;;;;;;5031130;28;20212;-78
2023/09/11 03:00:33;;;;;;;15.00;13.77;;;17.20;99.90;;;;;;5030210;28;20242;-78
2023/09/11 03:03:01;;;;;;;15.73;14.53;;;17.30;99.90;;;;;;5036475;28;20196;-76
2023/09/11 03:05:28;;;;;;;15.67;14.47;;;17.20;99.90;;;;;;5037068;28;20229;-76
2023/09/11 03:07:55;;;;;;;15.23;14.03;;;17.20;99.90;;;;;;5037476;28;20278;-76
2023/09/11 03:10:22;;;;;;;14.40;13.30;;;17.20;99.90;;;;;;5037398;28;20268;-76
2023/09/11 03:12:50;;;;;;;15.20;14.00;;;17.10;99.90;;;;;;5037446;28;20287;-76
2023/09/11 03:15:17;;;;;;;15.70;14.50;;;17.10;99.90;;;;;;5032874;28;20218;-77
2023/09/11 03:17:48;;;;;;;15.30;14.20;;;17.10;99.90;;;;;;5034563;28;20208;-76
2023/09/11 03:20:15;;;;;;;16.90;15.60;;;17.00;99.90;;;;;;5018780;28;20275;-76
2023/09/11 03:22:42;;;;;;;17.27;15.97;;;17.10;99.90;;;;;;5021710;28;20702;-76
2023/09/11 03:25:10;;;;;;;16.87;15.67;;;17.00;99.90;;;;;;5020877;28;20213;-77
2023/09/11 03:27:36;;;;;;;15.90;14.70;;;17.00;99.90;;;;;;5029826;28;20203;-77
2023/09/11 03:30:06;;;;;;;16.20;14.97;;;17.00;99.90;;;;;;5019388;28;20311;-77
2023/09/11 03:32:33;;;;;;;15.27;14.07;;;17.00;99.90;;;;;;5020777;28;20215;-75
2023/09/11 03:35:01;;;;;;;15.70;14.50;;;16.90;99.90;;;;;;5019589;28;20216;-76
2023/09/11 03:37:28;;;;;;;15.77;14.67;;;16.90;99.90;;;;;;5024643;28;20214;-75
2023/09/11 03:39:57;;;;;;;16.00;14.80;;;17.00;99.90;;;;;;5018218;28;20568;-75
2023/09/11 03:42:24;;;;;;;16.87;15.57;;;16.90;99.90;;;;;;5026020;28;20207;-75
2023/09/11 03:44:51;;;;;;;17.13;15.73;;;16.90;99.90;;;;;;5018648;28;20205;-75
2023/09/11 03:47:19;;;;;;;16.27;14.97;;;16.90;99.90;;;;;;5029842;28;20218;-75
2023/09/11 03:49:46;;;;;;;16.40;15.20;;;16.90;99.90;;;;;;5017519;28;20637;-75
2023/09/11 03:52:13;;;;;;;16.70;15.50;;;16.80;99.90;;;;;;5018879;28;20204;-75
2023/09/11 03:54:40;;;;;;;16.50;15.30;;;16.80;99.90;;;;;;5025167;28;20204;-75
2023/09/11 03:57:07;;;;;;;15.77;14.47;;;16.80;99.90;;;;;;5019554;28;20255;-75
2023/09/11 03:59:34;;;;;;;16.53;15.23;;;16.80;99.90;;;;;;5025078;28;20224;-75
2023/09/11 04:02:01;;;;;;;15.73;14.63;;;16.80;99.90;;;;;;5017657;28;20224;-75
2023/09/11 04:04:29;;;;;;;16.57;15.27;;;16.70;99.90;;;;;;5013251;28;20201;-75
2023/09/11 04:06:57;;;;;;;16.40;15.10;;;16.70;99.90;;;;;;5017826;28;20644;-75
2023/09/11 04:09:23;;;;;;;17.13;15.83;;;16.70;99.90;;;;;;5019335;28;20599;-75
2023/09/11 04:11:50;;;;;;;16.97;15.67;;;16.70;99.90;;;;;;5019933;28;20204;-75
2023/09/11 04:14:17;;;;;;;16.60;15.40;;;16.70;99.90;;;;;;5020624;28;20199;-75
2023/09/11 04:16:44;;;;;;;16.63;15.43;;;16.60;99.90;;;;;;5016460;28;20212;-75
2023/09/11 04:19:11;;;;;;;16.53;15.13;;;16.70;99.90;;;;;;5017420;28;20215;-75
2023/09/11 04:21:40;;;;;;;15.97;14.77;;;16.70;99.90;;;;;;5015512;28;20201;-75
2023/09/11 04:24:12;;;;;;;16.87;15.57;;;16.60;99.90;;;;;;5016194;28;20296;-75
2023/09/11 04:26:39;;;;;;;15.97;14.77;;;16.60;99.90;;;;;;5019615;28;20602;-74
2023/09/11 04:29:06;;;;;;;16.57;15.37;;;16.60;99.90;;;;;;5020736;28;20228;-75
2023/09/11 04:31:33;;;;;;;16.83;15.43;;;16.60;99.90;;;;;;5020783;28;20209;-74
2023/09/11 04:34:00;;;;;;;15.53;14.37;;;16.60;99.90;;;;;;5017160;28;20223;-74
2023/09/11 04:36:27;;;;;;;16.77;15.47;;;16.60;99.90;;;;;;5017959;28;20191;-75
2023/09/11 04:38:56;;;;;;;16.90;15.70;;;16.60;99.90;;;;;;5016283;28;20269;-75
2023/09/11 04:41:22;;;;;;;18.67;17.17;;;16.60;99.90;;;;;;5013829;28;20651;-75
2023/09/11 04:43:49;;;;;;;17.67;16.27;;;16.60;99.90;;;;;;5018490;28;20586;-75
2023/09/11 04:46:17;;;;;;;17.00;15.70;;;16.60;99.90;;;;;;5019581;28;20604;-75
2023/09/11 04:48:44;;;;;;;17.30;15.93;;;16.60;99.90;;;;;;5020595;28;20217;-75
2023/09/11 04:51:11;;;;;;;17.30;16.00;;;16.60;99.90;;;;;;5017400;28;20275;-75
2023/09/11 04:53:38;;;;;;;17.17;15.97;;;16.60;99.90;;;;;;5017210;28;20283;-75
2023/09/11 04:56:07;;;;;;;16.77;15.57;;;16.60;99.90;;;;;;5017502;28;20689;-75
2023/09/11 04:58:34;;;;;;;17.53;16.23;;;16.60;99.90;;;;;;5013880;28;20266;-74
2023/09/11 05:01:02;;;;;;;18.07;16.70;;;16.60;99.90;;;;;;5024829;28;20292;-75
2023/09/11 05:03:30;;;;;;;17.97;16.67;;;16.60;99.90;;;;;;5019861;28;20219;-75
2023/09/11 05:05:56;;;;;;;17.47;16.07;;;16.60;99.90;;;;;;5015625;28;20212;-75
2023/09/11 05:08:23;;;;;;;16.97;15.67;;;16.60;99.90;;;;;;5017286;28;20641;-75
2023/09/11 05:10:50;;;;;;;18.00;16.70;;;16.60;99.90;;;;;;5016069;28;20204;-75
2023/09/11 05:13:19;;;;;;;18.40;16.97;;;16.50;99.90;;;;;;5023030;28;20223;-74
2023/09/11 05:15:48;;;;;;;19.03;17.63;;;16.50;99.90;;;;;;5023464;28;20279;-74
2023/09/11 05:18:15;;;;;;;18.13;16.83;;;16.50;99.90;;;;;;5017009;28;20221;-76
2023/09/11 05:20:44;;;;;;;18.10;16.70;;;16.50;99.90;;;;;;5027361;28;20741;-76
2023/09/11 05:23:11;;;;;;;17.33;16.03;;;16.50;99.90;;;;;;5016307;28;20203;-77
2023/09/11 05:25:38;;;;;;;16.87;15.67;;;16.60;99.90;;;;;;5019353;28;20695;-75
2023/09/11 05:28:05;;;;;;;17.57;16.17;;;16.60;99.90;;;;;;5019545;28;20212;-76
2023/09/11 05:30:33;;;;;;;17.30;16.07;;;16.60;99.90;;;;;;5019481;28;20257;-75
2023/09/11 05:33:00;;;;;;;17.90;16.50;;;16.70;99.90;;;;;;5023070;28;20728;-74
2023/09/11 05:35:27;;;;;;;18.13;16.83;;;16.80;99.90;;;;;;5017661;28;20674;-76
2023/09/11 05:37:53;;;;;;;16.77;15.50;;;16.80;99.90;;;;;;5017958;28;20611;-76
2023/09/11 05:40:20;;;;;;;16.83;15.63;;;16.90;99.90;;;;;;5015479;28;20270;-74
2023/09/11 05:42:47;;;;;;;16.20;15.00;;;17.00;99.90;;;;;;5018370;28;20682;-76
2023/09/11 05:45:14;;;;;;;16.87;15.67;;;17.10;99.90;;;;;;5018996;28;20196;-76
2023/09/11 05:47:42;;;;;;;16.40;15.20;;;17.20;99.90;;;;;;5027668;28;20270;-75
2023/09/11 05:50:11;;;;;;;15.57;14.47;;;17.30;99.90;;;;;;5019917;28;20750;-75
2023/09/11 05:52:37;;;;;;;15.30;14.10;;;17.40;99.90;;;;;;5014974;28;20204;-75
2023/09/11 05:55:05;;;;;;;15.90;14.70;;;17.50;99.90;;;;;;5015195;28;20206;-76
2023/09/11 05:57:32;;;;;;;15.70;14.40;;;17.60;99.90;;;;;;5013689;28;20197;-75
2023/09/11 05:59:59;;;;;;;16.47;15.27;;;17.70;99.90;;;;;;5016177;28;20228;-75
2023/09/11 06:02:26;;;;;;;16.97;15.67;;;17.80;99.90;;;;;;5017434;28;20193;-75
2023/09/11 06:04:54;;;;;;;17.10;15.80;;;17.90;99.90;;;;;;5018018;28;20256;-76
2023/09/11 06:07:21;;;;;;;16.13;15.00;;;18.00;99.90;;;;;;5020000;28;20201;-76
2023/09/11 06:09:47;;;;;;;16.00;14.70;;;18.00;99.90;;;;;;5014640;28;20213;-76
2023/09/11 06:12:14;;;;;;;15.97;14.67;;;18.10;99.90;;;;;;5016736;28;20258;-75
2023/09/11 06:14:41;;;;;;;16.13;14.83;;;18.10;99.90;;;;;;5028580;28;20623;-76
2023/09/11 06:17:08;;;;;;;16.00;14.80;;;18.20;99.90;;;;;;5017357;28;20193;-76
2023/09/11 06:19:34;;;;;;;16.13;14.83;;;18.20;99.90;;;;;;5017331;28;20216;-75
2023/09/11 06:22:03;;;;;;;15.90;14.57;;;18.30;99.90;;;;;;5022512;28;20201;-75
2023/09/11 06:24:29;;;;;;;9.70;8.70;;;18.30;99.90;;;;;;5020035;28;20193;-76
2023/09/11 06:27:04;;;;;;;10.57;9.57;;;18.30;99.90;;;;;;5016053;28;20218;-76
2023/09/11 06:29:31;;;;;;;9.77;8.70;;;18.40;99.90;;;;;;5017058;28;20834;-76
2023/09/11 06:31:58;;;;;;;11.90;10.80;;;18.40;99.90;;;;;;5013866;28;20668;-75
2023/09/11 06:34:25;;;;;;;9.67;8.73;;;18.50;99.90;;;;;;5014642;28;20198;-76
2023/09/11 06:36:53;;;;;;;10.20;9.10;;;18.50;99.90;;;;;;5017453;28;20202;-75
2023/09/11 06:39:21;;;;;;;9.40;8.50;;;18.50;99.90;;;;;;5019168;28;20652;-75
2023/09/11 06:41:48;;;;;;;8.90;7.83;;;18.60;99.90;;;;;;5016415;28;20213;-75
2023/09/11 06:44:15;;;;;;;9.87;8.93;;;18.70;99.90;;;;;;5015357;28;20204;-76
2023/09/11 06:46:42;;;;;;;9.50;8.60;;;18.70;99.90;;;;;;5016262;28;20817;-75
2023/09/11 06:49:09;;;;;;;9.70;8.73;;;18.80;99.90;;;;;;5016621;28;20307;-76
2023/09/11 06:51:36;;;;;;;9.90;9.00;;;18.90;99.90;;;;;;5014092;28;20712;-76
2023/09/11 06:54:03;;;;;;;10.70;9.70;;;19.00;99.90;;;;;;5017723;28;20195;-75
2023/09/11 06:56:32;;;;;;;13.20;12.20;;;19.00;99.90;;;;;;5021500;28;20192;-78
2023/09/11 06:58:58;;;;;;;13.60;12.50;;;19.10;99.90;;;;;;5017974;28;20232;-77
2023/09/11 07:01:25;;;;;;;11.73;10.63;;;19.20;99.90;;;;;;5020595;28;20246;-77
2023/09/11 07:03:52;;;;;;;12.90;11.60;;;19.30;99.90;;;;;;5029060;28;20257;-78
2023/09/11 07:06:19;;;;;;;9.67;8.67;;;19.40;99.90;;;;;;5029542;28;20219;-77
2023/09/11 07:08:45;;;;;;;14.73;13.33;;;19.50;99.90;;;;;;5027683;28;20763;-78
2023/09/11 07:11:12;;;;;;;11.17;10.03;;;19.70;99.90;;;;;;5026910;28;20207;-78
2023/09/11 07:13:41;;;;;;;10.43;9.43;;;20.00;99.90;;;;;;5021837;28;20246;-77
2023/09/11 07:16:07;;;;;;;10.43;9.40;;;20.30;99.90;;;;;;5021645;28;20199;-78
2023/09/11 07:18:34;;;;;;;11.57;9.97;;;20.70;99.90;;;;;;5017311;28;20232;-76
2023/09/11 07:21:01;;;;;;;10.90;9.50;;;21.20;99.90;;;;;;5023040;28;20259;-76
2023/09/11 07:23:29;;;;;;;13.30;12.10;;;21.70;99.90;;;;;;5018344;28;20201;-76
2023/09/11 07:25:56;;;;;;;14.87;13.37;;;22.20;99.90;;;;;;5024874;28;20207;-76
2023/09/11 07:28:24;;;;;;;14.47;13.13;;;22.60;99.90;;;;;;5019673;28;20223;-78
2023/09/11 07:30:53;;;;;;;16.10;14.60;;;23.00;99.90;;;;;;5030717;28;20235;-76
2023/09/11 07:33:20;;;;;;;16.90;15.60;;;23.50;99.90;;;;;;5014750;28;20586;-76
2023/09/11 07:35:47;;;;;;;11.57;9.00;;;24.10;99.90;;;;;;5024941;28;20294;-78
2023/09/11 07:38:13;;;;;;;14.67;10.53;;;24.50;99.90;;;;;;5027142;28;20259;-77
2023/09/11 07:40:40;;;;;;;13.23;10.00;;;24.90;99.90;;;;;;5017987;28;20210;-75
2023/09/11 07:43:08;;;;;;;10.60;9.53;;;25.20;99.90;;;;;;5020257;28;20192;-76
2023/09/11 07:45:35;;;;;;;11.70;10.50;;;25.50;99.90;;;;;;5028751;28;20223;-75
2023/09/11 07:48:03;;;;;;;24.77;19.13;;;25.80;99.90;;;;;;5023334;28;20286;-75
2023/09/11 07:50:30;;;;;;;18.93;14.33;;;26.00;99.90;;;;;;5018943;28;20205;-75
2023/09/11 07:52:57;;;;;;;20.30;18.30;;;26.40;99.90;;;;;;5026885;28;20654;-75
2023/09/11 07:55:23;;;;;;;15.23;13.80;;;26.80;99.90;;;;;;5024070;28;20250;-75
2023/09/11 07:57:52;;;;;;;14.97;13.77;;;27.00;99.90;;;;;;5016386;28;20609;-75
2023/09/11 08:00:19;;;;;;;15.73;14.43;;;27.30;99.90;;;;;;5019223;28;20693;-75
2023/09/11 08:02:48;;;;;;;15.03;13.83;;;27.50;99.90;;;;;;5029843;28;20250;-75
2023/09/11 08:05:16;;;;;;;14.87;13.67;;;27.70;99.90;;;;;;5022539;28;20197;-75
2023/09/11 08:07:43;;;;;;;15.00;13.80;;;27.90;99.90;;;;;;5017057;28;20219;-75
2023/09/11 08:10:10;;;;;;;14.80;13.70;;;28.00;99.90;;;;;;5019182;28;20207;-75
2023/09/11 08:12:37;;;;;;;15.30;14.07;;;28.00;99.90;;;;;;5021206;28;20258;-75
2023/09/11 08:15:05;;;;;;;14.63;13.13;;;28.00;99.90;;;;;;5025417;28;20250;-75
2023/09/11 08:17:32;;;;;;;12.90;11.80;;;28.20;99.90;;;;;;5030495;28;20207;-75
2023/09/11 08:19:59;;;;;;;15.77;14.17;;;28.20;99.90;;;;;;5019466;28;20246;-76
2023/09/11 08:22:27;;;;;;;15.23;14.07;;;28.30;99.90;;;;;;5022038;28;20206;-75
2023/09/11 08:24:53;;;;;;;14.37;13.17;;;28.60;99.90;;;;;;5029899;28;20469;-78
2023/09/11 08:27:21;;;;;;;13.23;12.10;;;28.50;99.90;;;;;;5026977;28;20212;-75
2023/09/11 08:29:47;;;;;;;13.63;12.03;;;28.50;99.90;;;;;;5018694;28;20243;-76
2023/09/11 08:32:14;;;;;;;13.27;11.87;;;28.60;99.90;;;;;;5018028;28;20609;-76
2023/09/11 08:34:41;;;;;;;13.50;11.87;;;28.60;99.90;;;;;;5014837;28;20618;-76
2023/09/11 08:37:08;;;;;;;13.30;12.10;;;28.80;99.90;;;;;;5017852;28;20196;-76
2023/09/11 08:39:36;;;;;;;12.17;10.87;;;29.00;99.90;;;;;;5016471;28;20217;-76
2023/09/11 08:42:05;;;;;;;12.33;11.43;;;29.20;99.90;;;;;;5024668;28;20238;-75
2023/09/11 08:44:32;;;;;;;15.57;14.20;;;29.50;99.90;;;;;;5016864;28;20251;-75
2023/09/11 08:47:00;;;;;;;14.73;13.53;;;29.40;99.90;;;;;;5022083;28;20307;-76
2023/09/11 08:49:33;;;;;;;15.33;13.90;;;29.50;99.90;;;;;;5017025;28;20579;-76
2023/09/11 08:52:02;;;;;;;14.50;13.00;;;29.40;99.90;;;;;;5018870;28;20250;-76
2023/09/11 08:54:35;;;;;;;14.33;13.00;;;29.50;99.90;;;;;;5017701;28;20197;-76
2023/09/11 08:57:06;;;;;;;15.50;14.23;;;29.60;99.90;;;;;;5019028;28;20201;-76
2023/09/11 08:59:37;;;;;;;15.30;14.00;;;29.80;99.90;;;;;;5019386;28;20793;-75
2023/09/11 09:02:04;;;;;;;13.27;12.17;;;29.90;99.90;;;;;;5021222;28;20570;-75
2023/09/11 09:04:34;;;;;;;14.47;13.30;;;30.00;99.90;;;;;;5015592;28;20254;-76
2023/09/11 09:07:01;;;;;;;15.27;14.03;;;29.90;99.90;;;;;;5017466;28;20219;-76
2023/09/11 09:09:28;;;;;;;15.07;13.87;;;30.10;99.90;;;;;;5019090;28;20221;-76
2023/09/11 09:11:55;;;;;;;13.90;12.50;;;30.40;99.90;;;;;;5024652;28;20196;-76
2023/09/11 09:14:27;;;;;;;12.27;11.37;;;30.30;99.90;;;;;;5032526;28;20287;-76
2023/09/11 09:16:54;;;;;;;12.43;11.17;;;30.60;99.90;;;;;;5031256;28;20290;-76
2023/09/11 09:19:21;;;;;;;12.27;11.17;;;31.00;99.90;;;;;;5032475;28;20220;-76
2023/09/11 09:22:09;;;;;;;13.13;11.40;;;31.00;99.90;;;;;;5015363;28;20197;-75
2023/09/11 09:24:37;;;;;;;12.20;11.13;;;30.90;99.90;;;;;;5019512;28;20208;-74
2023/09/11 09:27:06;;;;;;;12.53;11.53;;;30.90;99.90;;;;;;5017553;28;20266;-75
2023/09/11 09:29:36;;;;;;;12.90;11.70;;;31.00;99.90;;;;;;5017756;28;20232;-75
2023/09/11 09:32:03;;;;;;;13.10;11.10;;;31.20;99.90;;;;;;5022646;28;20200;-78
2023/09/11 09:34:32;;;;;;;14.57;11.43;;;31.40;99.90;;;;;;5029767;28;20678;-78
2023/09/11 09:36:59;;;;;;;13.77;12.67;;;31.40;99.90;;;;;;5032558;28;20203;-78
2023/09/11 09:39:28;;;;;;;14.67;13.17;;;31.70;99.90;;;;;;5023859;28;20217;-79
2023/09/11 09:41:57;;;;;;;14.00;12.82;;;31.70;99.90;;;;;;5022113;28;20230;-79
2023/09/11 09:44:30;;;;;;;14.53;13.20;;;31.70;99.90;;;;;;5017785;28;20266;-77
2023/09/11 09:47:07;;;;;;;14.23;13.13;;;31.60;99.90;;;;;;5017997;28;20559;-79
2023/09/11 09:49:42;;;;;;;13.80;12.70;;;31.60;99.90;;;;;;5021175;28;20325;-79
2023/09/11 09:52:09;;;;;;;13.85;12.57;;;31.70;99.90;;;;;;5032703;28;20204;-79
2023/09/11 09:54:47;;;;;;;14.65;13.35;;;31.80;99.90;;;;;;5032525;28;20627;-78
2023/09/11 09:57:15;;;;;;;14.90;13.53;;;31.80;99.90;;;;;;5025278;28;20202;-79
2023/09/11 09:59:42;;;;;;;13.83;12.83;;;31.60;99.90;;;;;;5021017;28;20251;-78
2023/09/11 10:02:12;;;;;;;14.10;13.00;;;31.40;99.90;;;;;;5021784;28;20196;-79
2023/09/11 10:04:40;;;;;;;14.10;13.00;;;31.60;99.90;;;;;;5016233;28;20292;-77
2023/09/11 10:07:07;;;;;;;13.77;12.50;;;31.50;99.90;;;;;;5019426;28;20753;-78
2023/09/11 10:09:34;;;;;;;13.27;12.07;;;31.20;99.90;;;;;;5019158;28;20281;-79
2023/09/11 10:12:11;;;;;;;13.57;12.23;;;31.10;99.90;;;;;;5019499;28;20234;-79
2023/09/11 10:14:38;;;;;;;12.73;11.73;;;31.20;99.90;;;;;;5020429;28;20204;-78
2023/09/11 10:17:06;;;;;;;12.60;11.60;;;31.10;99.90;;;;;;5021693;28;20193;-78
2023/09/11 10:19:37;;;;;;;11.83;10.90;;;30.70;99.90;;;;;;5022635;28;20316;-78
2023/09/11 10:22:05;;;;;;;12.70;11.70;;;30.80;99.90;;;;;;5019797;28;20251;-78
2023/09/11 10:24:32;;;;;;;12.20;11.30;;;30.80;99.90;;;;;;5017469;28;20207;-78
2023/09/11 10:27:03;;;;;;;12.43;11.53;;;30.90;99.90;;;;;;5024196;28;20201;-78
2023/09/11 10:29:49;;;;;;;12.23;11.13;;;30.90;99.90;;;;;;5019505;28;20229;-78
2023/09/11 10:32:19;;;;;;;12.27;11.27;;;30.60;99.90;;;;;;5014770;28;20200;-77
2023/09/11 10:34:50;;;;;;;12.40;11.30;;;30.40;99.90;;;;;;5021334;28;20279;-78
2023/09/11 10:37:19;;;;;;;12.80;11.80;;;30.40;99.90;;;;;;5017950;28;20197;-79
2023/09/11 10:39:46;;;;;;;12.57;11.67;;;30.10;99.90;;;;;;5017660;28;20578;-79
2023/09/11 10:42:13;;;;;;;12.10;11.20;;;29.90;99.90;;;;;;5020381;28;20659;-79
2023/09/11 10:44:40;;;;;;;11.60;10.60;;;30.00;99.90;;;;;;5021830;28;20776;-77
2023/09/11 10:47:11;;;;;;;10.67;9.40;;;30.10;99.90;;;;;;5017308;28;20632;-78
2023/09/11 10:49:40;;;;;;;12.53;11.43;;;30.10;99.90;;;;;;5023478;28;20227;-79
2023/09/11 10:52:10;;;;;;;12.87;11.77;;;30.10;99.90;;;;;;5017124;28;20279;-78
2023/09/11 10:54:36;;;;;;;12.50;11.30;;;29.90;99.90;;;;;;5019859;28;20196;-77
2023/09/11 10:57:05;;;;;;;13.70;12.60;;;29.90;99.90;;;;;;5023900;28;20911;-79
2023/09/11 10:59:33;;;;;;;12.27;11.33;;;29.90;99.90;;;;;;5022880;28;20223;-78
2023/09/11 11:02:00;;;;;;;8.77;7.83;;;29.70;99.90;;;;;;5023692;28;20200;-77
2023/09/11 11:04:27;;;;;;;8.93;8.10;;;29.60;99.90;;;;;;5025969;28;20204;-79
2023/09/11 11:06:55;;;;;;;10.33;9.53;;;29.60;99.90;;;;;;5021960;28;20211;-77
2023/09/11 11:09:31;;;;;;;9.83;8.20;;;29.60;99.90;;;;;;5021407;28;20224;-78
2023/09/11 11:11:59;;;;;;;11.10;10.10;;;29.40;99.90;;;;;;5018814;28;20267;-78
2023/09/11 11:14:27;;;;;;;11.33;10.43;;;29.40;99.90;;;;;;5015630;28;20262;-80
2023/09/11 11:17:00;;;;;;;11.67;10.57;;;29.20;99.90;;;;;;5025402;28;20196;-77
2023/09/11 11:19:32;;;;;;;11.27;10.37;;;29.20;99.90;;;;;;5015712;28;20693;-80
2023/09/11 11:22:00;;;;;;;10.73;9.93;;;29.20;99.90;;;;;;5025824;28;20200;-78
2023/09/11 11:24:34;;;;;;;10.67;9.87;;;29.20;99.90;;;;;;5024256;28;20431;-78
2023/09/11 11:27:03;;;;;;;10.87;9.83;;;29.30;99.90;;;;;;5016373;28;20283;-78
2023/09/11 11:29:30;;;;;;;10.83;10.00;;;29.30;99.90;;;;;;5023578;28;20306;-79
2023/09/11 11:31:59;;;;;;;11.70;10.83;;;29.30;99.90;;;;;;5022908;28;20196;-79
2023/09/11 11:34:29;;;;;;;11.27;10.27;;;29.30;99.90;;;;;;5018401;28;20200;-79
2023/09/11 11:36:58;;;;;;;11.87;10.43;;;29.20;99.90;;;;;;5019995;28;20207;-79
2023/09/11 11:39:26;;;;;;;11.37;10.43;;;29.10;99.90;;;;;;5026335;28;20215;-79
2023/09/11 11:41:56;;;;;;;10.90;9.80;;;29.00;99.90;;;;;;5022682;28;20212;-78
2023/09/11 11:44:25;;;;;;;11.20;10.20;;;29.00;99.90;;;;;;5015234;28;20204;-79
2023/09/11 11:46:52;;;;;;;10.10;9.30;;;29.00;99.90;;;;;;5024271;28;20196;-79
2023/09/11 11:49:20;;;;;;;10.47;9.63;;;28.90;99.90;;;;;;5019609;28;20307;-78
2023/09/11 11:51:48;;;;;;;10.20;9.30;;;28.80;99.90;;;;;;5020423;28;20662;-79
2023/09/11 11:54:22;;;;;;;10.30;9.50;;;28.80;99.90;;;;;;5016869;28;20196;-78
2023/09/11 11:56:56;;;;;;;9.93;9.13;;;28.80;99.90;;;;;;5020415;28;20200;-79
2023/09/11 11:59:23;;;;;;;9.60;8.70;;;28.90;99.90;;;;;;5024134;28;20224;-78
2023/09/11 12:01:50;;;;;;;10.60;9.50;;;29.00;99.90;;;;;;5022939;28;20671;-79
2023/09/11 12:04:17;;;;;;;10.63;9.63;;;28.90;99.90;;;;;;5022237;28;20204;-79
2023/09/11 12:06:44;;;;;;;10.13;9.23;;;28.90;99.90;;;;;;5019644;28;20192;-78
2023/09/11 12:09:11;;;;;;;6.40;5.80;;;28.90;99.90;;;;;;5023089;28;20223;-79
2023/09/11 12:11:39;;;;;;;5.97;5.27;;;28.90;99.90;;;;;;5029931;28;20725;-79
2023/09/11 12:14:13;;;;;;;5.87;5.30;;;28.90;99.90;;;;;;5019894;28;20196;-81
2023/09/11 12:16:39;;;;;;;6.30;5.27;;;28.90;99.90;;;;;;5019447;28;20254;-79
2023/09/11 12:19:07;;;;;;;8.50;5.90;;;28.90;99.90;;;;;;5015682;28;20350;-78
2023/09/11 12:21:35;;;;;;;7.93;5.77;;;28.80;99.90;;;;;;5020962;28;20211;-79
2023/09/11 12:24:03;;;;;;;7.63;5.97;;;28.70;99.90;;;;;;5025923;28;20204;-78
2023/09/11 12:26:31;;;;;;;6.80;5.57;;;28.70;99.90;;;;;;5020925;28;20275;-80
2023/09/11 12:28:58;;;;;;;7.40;6.70;;;28.60;99.90;;;;;;5031583;28;20227;-79
2023/09/11 12:31:26;;;;;;;8.47;6.50;;;28.60;99.90;;;;;;5023130;28;20204;-77
2023/09/11 12:33:54;;;;;;;8.43;7.73;;;28.60;99.90;;;;;;5025707;28;20204;-77